M I D A S
Marine Information and Data Acquisition System
Tripno 2264 of the Zeeleeuw from 2012-02-13 09:27:11 to 2012-02-13 15:21:38
Back to CruiseResearch ActivitiesStationsMapUnderway DataData graphs

EquipmentUnitsComment
TimeDGPSUTC
LatitudeDGPSDM.mWGS84
LongitudeDGPSDM.mWGS84
TemperatureSBE03/SBE38deg celciusITS90
ConductivitySBE21S/mITS90
SalinitySBE21 Practical Salinity Units
ChlorophylAChelsea fluorimeterg/lCalibrated in Aceton
Missing or incorrect values are displayed as -999
Sea surface data collected by the RV Zeeleeuw from 2012-02-13 07:31:11 to 2012-02-13 15:31:12
Time Latitude Longitude Temperature Conductivity Salinity ChlorophylA
2012-02-13 07:32:17 51°13.635 2°56.019 8.8758 0.427777 2.467767 -1.326982
2012-02-13 07:33:17 51°13.636 2°56.02 8.8842 0.427777 2.467724 -1.326982
2012-02-13 07:34:17 51°13.636 2°56.02 8.8745 0.427777 2.467681 -1.326982
2012-02-13 07:35:17 51°13.636 2°56.019 8.8805 0.42788 2.468269 -1.326982
2012-02-13 07:36:17 51°13.637 2°56.019 8.8761 0.42788 2.468183 -1.326982
2012-02-13 07:37:17 51°13.637 2°56.021 8.879 0.427983 2.468728 -1.326982
2012-02-13 07:38:17 51°13.637 2°56.02 8.8834 0.427983 2.468685 -1.326982
2012-02-13 07:39:17 51°13.637 2°56.019 8.8982 0.427983 2.468642 -1.326982
2012-02-13 07:40:17 51°13.638 2°56.019 8.9115 0.428085 2.469229 -1.326982
2012-02-13 07:41:17 51°13.637 2°56.019 8.9225 0.428188 2.469817 -1.326982
2012-02-13 07:42:16 51°13.636 2°56.018 8.9234 0.428291 2.470448 -1.326982
2012-02-13 07:43:17 51°13.636 2°56.019 8.928 0.428291 2.470362 -1.326982
2012-02-13 07:44:17 51°13.635 2°56.019 8.8909 0.428291 2.470319 -1.326982
2012-02-13 07:45:17 51°13.637 2°56.019 8.4117 0.428188 2.469173 -1.326982
2012-02-13 07:46:17 51°13.638 2°56.02 8.5699 0.427777 2.466521 -1.326982
2012-02-13 07:47:16 51°13.639 2°56.02 8.7388 0.427674 2.465934 -1.326982
2012-02-13 07:48:17 51°13.637 2°56.019 8.8456 0.427571 2.465346 -1.326982
2012-02-13 07:49:16 51°13.636 2°56.018 8.8185 0.427571 2.465346 -1.326982
2012-02-13 07:50:17 51°13.636 2°56.018 8.8215 0.427571 2.46526 -1.326982
2012-02-13 07:51:17 51°13.635 2°56.017 8.8329 0.427571 2.465303 -1.326982
2012-02-13 07:52:17 51°13.636 2°56.018 8.8426 0.427674 2.465934 -1.326982
2012-02-13 07:53:17 51°13.635 2°56.019 8.8565 0.427674 2.465934 -1.326982
2012-02-13 07:54:17 51°13.636 2°56.018 8.8615 0.427674 2.465934 -1.326982
2012-02-13 07:55:17 51°13.637 2°56.018 8.8683 0.427777 2.466521 -1.326982
2012-02-13 07:56:17 51°13.637 2°56.018 8.8936 0.427674 2.465934 -1.326982
2012-02-13 07:57:17 51°13.637 2°56.018 8.9077 0.427777 2.466521 -1.326982
2012-02-13 07:58:17 51°13.636 2°56.018 8.8992 0.427777 2.466521 -1.326982
2012-02-13 07:59:17 51°13.637 2°56.019 8.915 0.42788 2.467152 -1.326982
2012-02-13 08:00:17 51°13.636 2°56.019 8.9126 0.42788 2.467195 -1.326982
2012-02-13 08:01:17 51°13.635 2°56.019 8.9435 0.42788 2.467195 -1.326982
2012-02-13 08:02:17 51°13.636 2°56.019 8.9562 0.427983 2.467868 -1.326982
2012-02-13 08:03:17 51°13.636 2°56.018 8.9608 0.42788 2.467238 -1.326982
2012-02-13 08:04:17 51°13.635 2°56.018 8.9912 0.427983 2.467868 -1.326982
2012-02-13 08:05:17 51°13.636 2°56.018 8.9891 0.427983 2.467911 -1.326982
2012-02-13 08:06:17 51°13.636 2°56.018 8.9932 0.428085 2.468585 -1.326982
2012-02-13 08:07:17 51°13.636 2°56.019 9.0143 0.428085 2.468628 -1.326982
2012-02-13 08:08:17 51°13.636 2°56.019 9.0244 0.428085 2.468671 -1.326982
2012-02-13 08:09:17 51°13.636 2°56.019 9.0416 0.428188 2.469344 -1.326982
2012-02-13 08:10:17 51°13.637 2°56.019 9.0369 0.428291 2.470061 -1.326982
2012-02-13 08:11:18 51°13.636 2°56.019 9.0416 0.428291 2.470104 -1.326982
2012-02-13 08:12:17 51°13.636 2°56.019 9.0612 0.428291 2.470147 -1.326982
2012-02-13 08:13:17 51°13.636 2°56.019 9.0868 0.428291 2.470233 -1.326982
2012-02-13 08:14:17 51°13.636 2°56.019 9.081 0.428291 2.470233 -1.326982
2012-02-13 08:15:17 51°13.636 2°56.018 9.0858 0.428291 2.470319 -1.326982
2012-02-13 08:16:17 51°13.637 2°56.018 9.101 0.428394 2.470993 -1.326982
2012-02-13 08:17:17 51°13.636 2°56.019 9.0902 0.428394 2.471079 -1.326982
2012-02-13 08:18:17 51°13.636 2°56.018 9.1076 0.428497 2.471796 -1.326982
2012-02-13 08:19:18 51°13.636 2°56.018 9.1536 0.428497 2.471882 -1.326982
2012-02-13 08:20:18 51°13.636 2°56.018 9.1693 0.428497 2.472011 -1.326982
2012-02-13 08:21:17 51°13.636 2°56.018 9.1278 0.4286 2.472814 -1.326982
2012-02-13 08:22:18 51°13.636 2°56.019 9.1673 0.4286 2.4729 -1.326982
2012-02-13 08:23:17 51°13.636 2°56.019 9.1844 0.4286 2.473029 -1.326982
2012-02-13 08:24:17 51°13.636 2°56.019 9.2138 0.428703 2.473747 -1.326982
2012-02-13 08:25:17 51°13.636 2°56.019 9.1962 0.428703 2.473876 -1.326982
2012-02-13 08:26:17 51°13.635 2°56.019 9.2041 0.4286 2.473374 -1.326982
2012-02-13 08:27:17 51°13.635 2°56.019 9.1956 0.428703 2.474091 -1.358416
2012-02-13 08:28:17 51°13.635 2°56.019 9.2353 0.428703 2.474177 -1.326982
2012-02-13 08:29:17 51°13.636 2°56.019 9.2308 0.428703 2.474307 -1.326982
2012-02-13 08:30:17 51°13.636 2°56.018 9.2394 0.428703 2.474479 -1.326982
2012-02-13 08:31:17 51°13.636 2°56.019 9.259 0.428703 2.474652 -1.326982
2012-02-13 08:32:17 51°13.636 2°56.018 9.2514 0.428703 2.474781 -1.326982
2012-02-13 08:33:17 51°13.636 2°56.017 9.2871 0.428703 2.474954 -1.326982
2012-02-13 08:34:17 51°13.636 2°56.017 9.2761 0.428703 2.475083 -1.326982
2012-02-13 08:35:17 51°13.636 2°56.018 9.2807 0.428703 2.475212 -1.326982
2012-02-13 08:36:17 51°13.636 2°56.018 9.2845 0.428703 2.475299 -1.326982
2012-02-13 08:37:17 51°13.636 2°56.018 9.291 0.428806 2.476016 -1.326982
2012-02-13 08:38:17 51°13.636 2°56.018 9.3168 0.428806 2.476146 -1.326982
2012-02-13 08:39:17 51°13.636 2°56.018 9.3106 0.428806 2.476232 -1.326982
2012-02-13 08:40:17 51°13.637 2°56.018 9.3614 0.428806 2.476405 -1.326982
2012-02-13 08:41:17 51°13.636 2°56.019 9.3395 0.428806 2.476578 -1.326982
2012-02-13 08:42:17 51°13.635 2°56.019 9.3513 0.428806 2.476707 -1.326982
2012-02-13 08:43:17 51°13.635 2°56.019 9.3637 0.428703 2.476205 -1.326982
2012-02-13 08:44:17 51°13.635 2°56.019 9.3588 0.428703 2.476291 -1.326982
2012-02-13 08:45:17 51°13.635 2°56.019 9.3583 0.428806 2.477009 -1.326982
2012-02-13 08:46:17 51°13.635 2°56.018 9.3602 0.428703 2.47655 -1.326982
2012-02-13 08:47:17 51°13.635 2°56.018 9.4027 0.428703 2.47681 -1.326982
2012-02-13 08:48:18 51°13.635 2°56.019 9.3928 0.428703 2.477026 -1.326982
2012-02-13 08:49:17 51°13.636 2°56.018 9.3973 0.428806 2.477831 -1.326982
2012-02-13 08:50:17 51°13.636 2°56.018 9.4138 0.428703 2.477371 -1.326982
2012-02-13 08:51:18 51°13.636 2°56.018 9.4262 0.428806 2.478176 -1.326982
2012-02-13 08:52:17 51°13.635 2°56.019 9.431 0.428806 2.478349 -1.326982
2012-02-13 08:53:17 51°13.635 2°56.019 9.4692 0.428703 2.478063 -1.326982
2012-02-13 08:54:17 51°13.635 2°56.018 9.4437 0.428703 2.478496 -1.326982
2012-02-13 08:55:17 51°13.635 2°56.019 9.4685 0.428703 2.478842 -1.326982
2012-02-13 08:56:17 51°13.635 2°56.019 9.5021 0.428703 2.478929 -1.326982
2012-02-13 08:57:17 51°13.636 2°56.018 9.501 0.428703 2.479059 -1.326982
2012-02-13 08:58:17 51°13.637 2°56.018 9.5088 0.428703 2.479232 -1.326982
2012-02-13 08:59:18 51°13.636 2°56.018 9.4803 0.428703 2.479535 -1.326982
2012-02-13 09:00:17 51°13.636 2°56.017 9.5019 0.4286 2.478989 -1.326982
2012-02-13 09:01:17 51°13.636 2°56.017 9.5236 0.428703 2.479751 -1.326982
2012-02-13 09:02:17 51°13.636 2°56.018 9.5259 0.428703 2.479968 -1.326982
2012-02-13 09:03:17 51°13.636 2°56.018 9.5532 0.4286 2.479335 -1.326982
2012-02-13 09:04:17 51°13.636 2°56.018 9.5533 0.4286 2.479379 -1.326982
2012-02-13 09:05:17 51°13.637 2°56.017 9.5514 0.4286 2.479552 -1.326982
2012-02-13 09:06:17 51°13.636 2°56.018 9.5515 0.4286 2.479899 -1.326982
2012-02-13 09:07:17 51°13.637 2°56.018 9.5662 0.428497 2.479569 -1.326982
2012-02-13 09:08:17 51°13.637 2°56.018 9.5716 0.4286 2.480506 -1.326982
2012-02-13 09:09:17 51°13.637 2°56.018 9.5769 0.428497 2.480653 -1.326982
2012-02-13 09:10:17 51°13.637 2°56.019 9.5808 0.428497 2.481001 -1.326982
2012-02-13 09:11:17 51°13.636 2°56.018 9.586 0.428497 2.481087 -1.326982
2012-02-13 09:12:17 51°13.637 2°56.018 9.5937 0.428497 2.481348 -1.326982
2012-02-13 09:13:17 51°13.637 2°56.018 9.5989 0.428497 2.481521 -1.326982
2012-02-13 09:14:17 51°13.638 2°56.018 9.6243 0.428394 2.481018 -1.326982
2012-02-13 09:15:17 51°13.638 2°56.019 9.6235 0.428394 2.481192 -1.326982
2012-02-13 09:16:17 51°13.637 2°56.02 9.6454 0.428394 2.481409 -1.326982
2012-02-13 09:17:17 51°13.637 2°56.019 9.6607 0.428497 2.482216 -1.326982
2012-02-13 09:18:17 51°13.637 2°56.018 9.6705 0.428394 2.481713 -1.326982
2012-02-13 09:19:17 51°13.637 2°56.018 9.6722 0.428394 2.481887 -1.326982
2012-02-13 09:20:17 51°13.637 2°56.018 9.6663 0.428497 2.482825 -1.326982
2012-02-13 09:21:17 51°13.634 2°56.015 9.6822 0.428394 2.482582 -1.326982
2012-02-13 09:22:17 51°13.638 2°56.023 9.6909 0.428394 2.4828 -1.326982
2012-02-13 09:23:17 51°13.638 2°56.023 9.6935 0.428497 2.483738 -1.326982
2012-02-13 09:24:17 51°13.635 2°56.019 9.7364 0.428394 2.483496 -1.326982
2012-02-13 09:25:17 51°13.636 2°56.018 9.7282 0.428394 2.483713 -1.326982
2012-02-13 09:26:17 51°13.636 2°56.019 9.735 0.428394 2.483974 -1.326982
2012-02-13 09:27:17 51°13.635 2°56.016 9.7571 0.428394 2.484279 -1.326982
2012-02-13 09:28:17 51°13.634 2°56.016 9.8271 0.428394 2.484584 -1.326982
2012-02-13 09:29:17 51°13.641 2°55.985 9.6724 0.431069 2.50051 -1.326982
2012-02-13 09:30:17 51°13.671 2°55.87 9.7421 0.430864 2.499197 -1.326982
2012-02-13 09:31:17 51°13.725 2°55.747 9.7605 0.430761 2.499132 -1.326982
2012-02-13 09:32:17 51°13.801 2°55.651 9.7527 0.430761 2.499482 -1.326982
2012-02-13 09:33:17 51°13.897 2°55.612 9.8028 0.430658 2.499418 -1.326982
2012-02-13 09:34:17 51°13.966 2°55.631 9.7678 0.430555 2.499177 -1.326982
2012-02-13 09:35:17 51°13.979 2°55.63 9.3233 0.430041 2.495215 -1.326982
2012-02-13 09:36:17 51°13.996 2°55.565 9.4284 0.429115 2.488719 -1.326982
2012-02-13 09:37:17 51°14.081 2°55.483 9.3702 0.429012 2.488652 -1.326982
2012-02-13 09:38:17 51°14.203 2°55.366 9.3897 0.428394 2.484802 -1.326982
2012-02-13 09:39:17 51°14.338 2°55.23 9.363 0.42788 2.481761 -1.326982
2012-02-13 09:40:17 51°14.481 2°55.081 9.4611 0.427468 2.479702 -1.326982
2012-02-13 09:41:15 51°14.627 2°54.903 9.1839 0.424382 2.457272 -1.326982
2012-02-13 09:42:14 51°14.787 2°54.709 9.181 0.424073 2.455587 -1.326982
2012-02-13 09:43:17 51°14.962 2°54.512 9.2439 0.42397 2.455126 -1.326982
2012-02-13 09:44:15 51°15.111 2°54.308 9.097 0.423662 2.453957 -1.326982
2012-02-13 09:45:13 51°15.261 2°54.105 9.122 0.423867 2.456429 -1.326982
2012-02-13 09:46:13 51°15.413 2°53.885 9.0986 0.423147 2.45324 -1.326982
2012-02-13 09:47:13 51°15.571 2°53.682 8.9571 0.423044 2.452219 -1.326982
2012-02-13 09:48:13 51°15.752 2°53.535 9.0167 0.423353 2.454465 -1.326982
2012-02-13 09:49:13 51°15.93 2°53.378 8.9646 0.422427 2.449275 -1.326982
2012-02-13 09:50:13 51°16.109 2°53.233 9.0153 0.423044 2.454156 -1.326982
2012-02-13 09:51:14 51°16.291 2°53.081 9.0086 0.422941 2.453694 -1.326982
2012-02-13 09:52:13 51°16.459 2°52.902 9.0161 0.422221 2.450113 -1.326982
2012-02-13 09:53:13 51°16.644 2°52.782 9.0653 0.42253 2.452405 -1.326982
2012-02-13 09:54:13 51°16.828 2°52.682 8.9761 0.42325 2.457668 -1.326982
2012-02-13 09:55:13 51°17.01 2°52.569 8.9751 0.42253 2.453784 -1.326982
2012-02-13 09:56:14 51°17.196 2°52.46 9.0006 0.422736 2.458252 -1.326982
2012-02-13 09:57:14 51°17.379 2°52.346 8.9751 0.422324 2.455622 -1.326982
2012-02-13 09:58:13 51°17.564 2°52.281 8.9981 0.422633 2.45753 -1.326982
2012-02-13 09:59:13 51°17.755 2°52.255 8.9848 0.422942 2.459914 -1.326982
2012-02-13 10:00:14 51°17.947 2°52.228 8.9656 0.422633 2.464213 -1.326982
2012-02-13 10:01:13 51°18.136 2°52.196 9.0335 0.422222 2.461924 -1.326982
2012-02-13 10:02:14 51°18.328 2°52.137 8.973 0.421604 2.458446 -1.326982
2012-02-13 10:03:13 51°18.515 2°52.084 9.0176 0.421193 2.457329 -1.326982
2012-02-13 10:04:13 51°18.704 2°52.007 9.0104 0.421399 2.459997 -1.326982
2012-02-13 10:05:13 51°18.891 2°51.919 9.043 0.420884 2.460072 -1.326982
2012-02-13 10:06:13 51°19.08 2°51.852 9.0381 0.420884 2.458068 -1.326982
2012-02-13 10:07:14 51°19.272 2°51.795 9.0379 0.420884 2.463085 -1.326982
2012-02-13 10:08:13 51°19.458 2°51.73 9.0485 0.420884 2.465055 -1.326982
2012-02-13 10:09:13 51°19.644 2°51.642 9.0362 0.420473 2.461575 -1.326982
2012-02-13 10:10:13 51°19.834 2°51.575 9.0761 0.420473 2.464289 -1.326982
2012-02-13 10:11:13 51°20.021 2°51.486 9.0548 0.420164 2.463024 -1.326982
2012-02-13 10:12:14 51°20.213 2°51.41 9.0789 0.420164 2.46535 -1.326982
2012-02-13 10:13:14 51°20.403 2°51.327 9.0747 0.419959 2.46556 -1.326982
2012-02-13 10:14:14 51°20.595 2°51.243 9.0905 0.419753 2.464496 -1.326982
2012-02-13 10:15:13 51°20.787 2°51.183 9.0955 0.41965 2.464865 -1.326982
2012-02-13 10:16:14 51°20.983 2°51.115 9.0793 0.419547 2.463212 -1.326982
2012-02-13 10:17:13 51°21.172 2°51.035 9.1096 0.419444 2.462439 -1.326982
2012-02-13 10:18:13 51°21.366 2°50.967 9.0981 0.419444 2.46772 -1.326982
2012-02-13 10:19:14 51°21.561 2°50.875 9.1111 0.419444 2.466927 -1.326982
2012-02-13 10:20:14 51°21.757 2°50.814 9.1314 0.419341 2.467474 -1.326982
2012-02-13 10:21:14 51°21.955 2°50.746 9.1384 0.419238 2.468023 -1.326982
2012-02-13 10:22:13 51°22.144 2°50.66 9.1474 0.419136 2.466761 -1.326982
2012-02-13 10:23:14 51°22.339 2°50.6 9.1565 0.419033 2.468281 -1.326982
2012-02-13 10:24:13 51°22.527 2°50.534 9.167 0.41749 2.460649 -1.326982
2012-02-13 10:25:13 51°22.718 2°50.458 9.171 0.4143 2.440984 -1.326982
2012-02-13 10:26:14 51°22.911 2°50.383 9.1754 0.426749 2.517027 -1.326982
2012-02-13 10:27:14 51°23.101 2°50.322 9.1749 0.426749 2.519826 -1.326982
2012-02-13 10:28:14 51°23.29 2°50.261 9.1998 0.426852 2.522373 -1.326982
2012-02-13 10:29:13 51°23.475 2°50.179 9.1985 0.426852 2.520562 -1.326982
2012-02-13 10:30:14 51°23.669 2°50.09 9.2025 0.426852 2.52405 -1.326982
2012-02-13 10:31:13 51°23.858 2°50.019 9.2233 0.426852 2.522826 -1.326982
2012-02-13 10:32:14 51°24.047 2°49.914 9.23 0.426852 2.52346 -1.326982
2012-02-13 10:33:13 51°24.23 2°49.828 9.235 0.426852 2.524821 -1.326982
2012-02-13 10:34:14 51°24.42 2°49.748 9.2487 0.426852 2.525639 -1.326982
2012-02-13 10:35:13 51°24.603 2°49.658 9.2575 0.426647 2.523709 -1.326982
2012-02-13 10:36:13 51°24.775 2°49.502 9.2564 0.426544 2.523516 -1.326982
2012-02-13 10:37:14 51°24.948 2°49.326 9.267 0.426749 2.526582 -1.326982
2012-02-13 10:38:14 51°25.125 2°49.174 9.2754 0.426749 2.527902 -1.326982
2012-02-13 10:39:14 51°25.299 2°49.006 9.2897 0.426955 2.530246 -1.326982
2012-02-13 10:40:13 51°25.475 2°48.867 9.3058 0.426852 2.528869 -1.326982
2012-02-13 10:41:13 51°25.65 2°48.708 9.3031 0.426955 2.531341 -1.326982
2012-02-13 10:42:13 51°25.823 2°48.552 9.2611 0.42675 2.531277 -1.326982
2012-02-13 10:43:13 51°26.004 2°48.445 9.9028 0.014746 0.079103 -1.326982
2012-02-13 10:44:14 51°26.126 2°48.373 9.7573 0.015774 0.084413 -1.326982
2012-02-13 10:45:13 51°26.168 2°48.367 9.8485 0.016082 0.085987 -1.326982
2012-02-13 10:46:14 51°26.17 2°48.37 9.868 0.014129 0.076001 -1.326982
2012-02-13 10:47:13 51°26.162 2°48.365 9.8973 0.013101 0.070776 -1.326982
2012-02-13 10:48:13 51°26.15 2°48.351 9.9085 0.013718 0.073903 -1.326982
2012-02-13 10:49:13 51°26.131 2°48.334 9.9496 0.012073 0.065577 -1.326982
2012-02-13 10:50:13 51°26.109 2°48.316 9.9677 0.012176 0.066102 -1.326982
2012-02-13 10:51:13 51°26.087 2°48.297 9.9958 0.012484 0.067661 -1.326982
2012-02-13 10:52:13 51°26.073 2°48.296 10.0455 0.014026 0.075481 -1.326982
2012-02-13 10:53:13 51°26.058 2°48.405 10.0614 0.012793 0.069233 -1.326982
2012-02-13 10:54:13 51°26.072 2°48.528 10.0886 0.011353 0.061983 -1.326982
2012-02-13 10:55:14 51°26.081 2°48.552 10.1202 0.011559 0.063023 -1.326982
2012-02-13 10:56:13 51°26.076 2°48.541 10.1324 0.011867 0.064587 -1.326982
2012-02-13 10:57:13 51°26.065 2°48.526 10.1588 0.012073 0.065641 -1.326982
2012-02-13 10:58:13 51°26.047 2°48.508 10.1958 0.011251 0.061507 -1.326982
2012-02-13 10:59:13 51°26.027 2°48.49 10.2341 0.011148 0.061005 -1.326982
2012-02-13 11:00:13 51°26.006 2°48.471 10.2565 0.011867 0.064644 -1.358416
2012-02-13 11:01:13 51°25.98 2°48.451 10.2852 0.011148 0.061029 -1.326982
2012-02-13 11:02:13 51°25.954 2°48.429 10.3207 0.011251 0.061557 -1.326982
2012-02-13 11:03:13 51°25.929 2°48.408 10.3584 0.010839 0.059507 -1.326982
2012-02-13 11:04:14 51°25.968 2°48.46 10.3699 0.010839 0.059533 -1.326982
2012-02-13 11:05:13 51°26.067 2°48.543 10.3704 0.011456 0.062647 -1.326982
2012-02-13 11:06:13 51°26.167 2°48.61 10.3929 0.011148 0.061103 -1.326982
2012-02-13 11:07:13 51°26.238 2°48.646 10.4344 0.011353 0.062148 -1.326982
2012-02-13 11:08:14 51°26.273 2°48.647 10.4393 0.012998 0.070497 -1.326982
2012-02-13 11:09:14 51°26.285 2°48.642 10.4907 0.012073 0.065831 -1.326982
2012-02-13 11:10:13 51°26.285 2°48.631 10.5147 0.012176 0.066365 -1.326982
2012-02-13 11:11:14 51°26.284 2°48.617 10.5564 0.011662 0.063777 -1.326982
2012-02-13 11:12:13 51°26.281 2°48.602 10.5523 0.012176 0.066394 -1.326982
2012-02-13 11:13:14 51°26.274 2°48.587 10.5957 0.01197 0.065368 -1.326982
2012-02-13 11:14:13 51°26.267 2°48.571 10.6208 0.012073 0.065902 -1.326982
2012-02-13 11:15:14 51°26.26 2°48.554 10.6044 0.01197 0.065389 -1.326982
2012-02-13 11:16:13 51°26.255 2°48.535 10.6463 0.012484 0.068016 -1.326982
2012-02-13 11:17:13 51°26.251 2°48.514 10.6974 0.012279 0.066984 -1.326982
2012-02-13 11:18:14 51°26.249 2°48.49 10.7397 0.011867 0.064907 -1.326982
2012-02-13 11:19:14 51°26.244 2°48.465 10.7397 0.011662 0.063882 -1.326982
2012-02-13 11:20:14 51°26.237 2°48.442 10.759 0.012279 0.067033 -1.326982
2012-02-13 11:21:13 51°26.231 2°48.423 10.7908 0.012895 0.070187 -1.326982
2012-02-13 11:22:14 51°26.225 2°48.406 10.8001 0.011559 0.063416 -1.326982
2012-02-13 11:23:13 51°26.221 2°48.389 10.8452 0.011456 0.06291 -1.326982
2012-02-13 11:24:13 51°26.219 2°48.374 10.8647 0.011045 0.06084 -1.326982
2012-02-13 11:25:13 51°26.214 2°48.361 10.8611 0.010942 0.060339 -1.326982
2012-02-13 11:26:14 51°26.21 2°48.348 10.9076 0.012073 0.066104 -1.326982
2012-02-13 11:27:14 51°26.207 2°48.332 10.897 0.010017 0.055705 -1.326982
2012-02-13 11:28:13 51°26.204 2°48.318 10.9422 0.010737 0.059346 -1.326982
2012-02-13 11:29:13 51°26.198 2°48.311 10.9652 0.010531 0.058324 -1.326982
2012-02-13 11:30:13 51°26.194 2°48.305 11.0077 0.010634 0.058858 -1.326982
2012-02-13 11:31:14 51°26.19 2°48.296 10.9719 0.01012 0.056272 -1.326982
2012-02-13 11:32:13 51°26.185 2°48.287 10.9769 0.009914 0.055249 -1.326982
2012-02-13 11:33:14 51°26.177 2°48.276 11.0081 0.011456 0.06308 -1.326982
2012-02-13 11:34:14 51°26.171 2°48.265 11.0298 0.010325 0.057358 -1.326982
2012-02-13 11:35:13 51°26.166 2°48.253 11.1095 0.010428 0.057896 -1.326982
2012-02-13 11:36:14 51°26.16 2°48.239 11.1165 0.010634 0.058961 -1.326982
2012-02-13 11:37:13 51°26.157 2°48.224 11.126 0.010325 0.057401 -1.326982
2012-02-13 11:38:13 51°26.153 2°48.207 11.1324 0.010531 0.058456 -1.326982
2012-02-13 11:39:13 51°26.148 2°48.189 11.1707 0.010017 0.055864 -1.326982
2012-02-13 11:40:14 51°26.14 2°48.17 11.1604 0.009914 0.055352 -1.326982
2012-02-13 11:41:13 51°26.136 2°48.156 11.2065 0.010325 0.057463 -1.326982
2012-02-13 11:42:14 51°26.14 2°48.158 11.2169 0.010222 0.056953 -1.326982
2012-02-13 11:43:13 51°26.139 2°48.156 11.1911 0.01012 0.056483 -1.326982
2012-02-13 11:44:13 51°26.136 2°48.152 11.2161 0.0094 0.052841 -1.326982
2012-02-13 11:45:14 51°26.136 2°48.151 11.2151 0.009297 0.05233 -1.326982
2012-02-13 11:46:13 51°26.139 2°48.148 11.2256 0.009297 0.052341 -1.326982
2012-02-13 11:47:13 51°26.143 2°48.144 11.2228 0.008886 0.050291 -1.326982
2012-02-13 11:48:13 51°26.143 2°48.137 11.2384 0.009914 0.0555 -1.326982
2012-02-13 11:49:13 51°26.143 2°48.127 11.2679 0.009914 0.055503 -1.326982
2012-02-13 11:50:13 51°26.144 2°48.116 11.3236 0.009708 0.054461 -1.326982
2012-02-13 11:51:13 51°26.146 2°48.101 11.3583 0.009914 0.055515 -1.326982
2012-02-13 11:52:13 51°26.152 2°48.08 11.3493 0.008886 0.050323 -1.326982
2012-02-13 11:53:13 51°26.157 2°48.04 11.3848 0.009708 0.054496 -1.326982
2012-02-13 11:54:14 51°26.142 2°47.93 11.3569 0.009708 0.054521 -1.326982
2012-02-13 11:55:13 51°26.033 2°47.723 11.022 0.011662 0.064514 -1.326982
2012-02-13 11:56:13 51°25.896 2°47.436 11.2628 0.060805 0.333366 -1.326982
2012-02-13 11:57:13 51°25.762 2°47.141 11.3698 0.024204 0.131047 -1.326982
2012-02-13 11:58:13 51°25.624 2°46.849 11.4572 0.032429 0.175863 -1.326982
2012-02-13 11:59:13 51°25.49 2°46.554 11.5746 0.063993 0.35304 -1.326982
2012-02-13 12:00:13 51°25.344 2°46.274 11.6333 0.062553 0.3448 -1.326982
2012-02-13 12:01:13 51°25.208 2°45.98 11.6777 0.02441 0.132735 -1.326982
2012-02-13 12:02:13 51°25.076 2°45.684 11.7272 0.028111 0.152933 -1.326982
2012-02-13 12:03:13 51°24.936 2°45.392 11.7632 0.113758 0.644182 -1.326982
2012-02-13 12:04:13 51°24.792 2°45.105 11.7873 0.032635 0.178345 -1.326982
2012-02-13 12:05:13 51°24.658 2°44.803 11.8085 0.048365 0.266371 -1.326982
2012-02-13 12:06:13 51°24.522 2°44.503 11.8252 0.022457 0.122959 -1.326982
2012-02-13 12:07:13 51°24.387 2°44.196 11.8614 0.03099 0.170023 -1.326982
2012-02-13 12:08:13 51°24.246 2°43.896 11.8728 0.031195 0.171311 -1.326982
2012-02-13 12:09:13 51°24.106 2°43.594 11.8889 0.038495 0.212608 -1.326982
2012-02-13 12:10:13 51°23.973 2°43.283 11.9137 0.03428 0.189246 -1.326982
2012-02-13 12:11:13 51°23.839 2°42.974 11.9395 0.043224 0.240194 -1.326982
2012-02-13 12:12:13 51°23.695 2°42.678 11.9266 0.023176 0.128113 -1.326982
2012-02-13 12:13:13 51°23.556 2°42.377 11.9749 0.052272 0.292909 -1.326982
2012-02-13 12:14:13 51°23.421 2°42.075 11.9726 0.029756 0.16523 -1.326982
2012-02-13 12:15:13 51°23.288 2°41.772 11.991 0.030887 0.171674 -1.326982
2012-02-13 12:16:13 51°23.151 2°41.474 11.985 0.070059 0.397253 -1.326982
2012-02-13 12:17:14 51°23.01 2°41.174 12.0404 0.055357 0.312397 -1.326982
2012-02-13 12:18:13 51°22.875 2°40.881 12.046 0.043739 0.245809 -1.326982
2012-02-13 12:19:14 51°22.738 2°40.574 12.0368 0.022868 0.1277 -1.326982
2012-02-13 12:20:13 51°22.565 2°40.348 12.0544 0.025849 0.14446 -1.326982
2012-02-13 12:21:14 51°22.347 2°40.26 12.0481 0.032635 0.18285 -1.326982
2012-02-13 12:22:13 51°22.128 2°40.26 12.0685 0.023176 0.129687 -1.326982
2012-02-13 12:23:13 51°21.903 2°40.251 12.0805 0.024616 0.13787 -1.326982
2012-02-13 12:24:13 51°21.678 2°40.227 12.0942 0.027803 0.155908 -1.326982
2012-02-13 12:25:13 51°21.454 2°40.211 12.1188 0.027597 0.154959 -1.326982
2012-02-13 12:26:13 51°21.229 2°40.192 12.1566 0.030065 0.169477 -1.326982
2012-02-13 12:27:13 51°21.006 2°40.161 12.1639 0.017728 0.100003 -1.326982
2012-02-13 12:28:14 51°20.779 2°40.136 12.1532 0.023279 0.131165 -1.326982
2012-02-13 12:29:13 51°20.562 2°40.131 12.1861 0.030476 0.172088 -1.326982
2012-02-13 12:30:14 51°20.334 2°40.103 12.1816 0.022354 0.126098 -1.326982
2012-02-13 12:31:13 51°20.115 2°40.067 12.1945 0.026775 0.151249 -1.326982
2012-02-13 12:32:13 51°19.895 2°40.041 12.2173 0.018242 0.103305 -1.326982
2012-02-13 12:33:13 51°19.673 2°40.023 12.2476 0.021326 0.120697 -1.326982
2012-02-13 12:34:13 51°19.454 2°39.99 12.2421 0.020709 0.117296 -1.326982
2012-02-13 12:35:14 51°19.235 2°39.964 12.2301 0.029242 0.165901 -1.326982
2012-02-13 12:36:13 51°19.021 2°39.945 12.291 0.021017 0.119287 -1.326982
2012-02-13 12:37:14 51°18.799 2°39.914 12.2322 0.03685 0.210129 -1.326982
2012-02-13 12:38:13 51°18.585 2°39.906 12.2621 0.019578 0.111399 -1.326982
2012-02-13 12:39:13 51°18.369 2°39.894 12.3009 0.02842 0.161863 -1.326982
2012-02-13 12:40:13 51°18.153 2°39.865 12.3115 0.046617 0.268151 -1.326982
2012-02-13 12:41:13 51°17.938 2°39.842 12.3176 0.120237 0.718409 -1.326982
2012-02-13 12:42:13 51°17.718 2°39.814 12.3184 0.035205 0.202428 -1.326982
2012-02-13 12:43:13 51°17.501 2°39.802 12.3594 0.06533 0.381536 -1.326982
2012-02-13 12:44:13 51°17.284 2°39.79 12.3257 0.053198 0.309134 -1.326982
2012-02-13 12:45:13 51°17.065 2°39.762 12.2877 0.05001 0.290169 -1.326982
2012-02-13 12:46:14 51°16.839 2°39.711 12.3624 0.055048 0.320641 -1.326982
2012-02-13 12:47:14 51°16.624 2°39.587 12.3485 0.049085 0.285466 -1.326982
2012-02-13 12:48:14 51°16.412 2°39.446 12.3717 0.020915 0.120243 -1.326982
2012-02-13 12:49:14 51°16.197 2°39.324 12.3727 0.025438 0.14638 -1.326982
2012-02-13 12:50:14 51°15.991 2°39.158 12.3889 0.032635 0.18878 -1.326982
2012-02-13 12:51:14 51°15.789 2°38.988 12.3822 0.019373 0.111845 -1.326982
2012-02-13 12:52:14 51°15.579 2°38.833 12.3778 0.039935 0.232314 -1.326982
2012-02-13 12:53:14 51°15.376 2°38.663 12.3739 0.024307 0.140635 -1.326982
2012-02-13 12:54:14 51°15.169 2°38.502 12.4075 0.061526 0.363638 -1.326982
2012-02-13 12:55:14 51°14.959 2°38.351 12.3973 0.068003 0.403615 -1.326982
2012-02-13 12:56:13 51°14.751 2°38.207 10.488 0.070677 0.420641 -1.326982
2012-02-13 12:57:14 51°14.534 2°38.061 10.7823 0.040552 0.237709 -1.326982
2012-02-13 12:58:13 51°14.32 2°37.959 10.1931 0.066461 0.396129 -1.326982
2012-02-13 12:59:14 51°14.093 2°37.899 10.8916 0.028728 0.167852 -1.326982
2012-02-13 13:00:14 51°13.874 2°37.823 11.0906 0.025747 0.150452 -1.326982
2012-02-13 13:01:14 51°13.658 2°37.767 10.9378 0.024102 0.140994 -1.326982
2012-02-13 13:02:14 51°13.444 2°37.703 11.0307 0.053506 0.318445 -1.326982
2012-02-13 13:03:14 51°13.233 2°37.635 10.5804 0.049188 0.292861 -1.326982
2012-02-13 13:04:13 51°13.023 2°37.583 11.0032 0.063788 0.38356 -1.326982
2012-02-13 13:05:14 51°12.809 2°37.51 11.0606 0.077463 0.469334 -1.326982
2012-02-13 13:06:14 51°12.599 2°37.415 10.9883 0.039729 0.235712 -1.326982
2012-02-13 13:07:14 51°12.39 2°37.313 11.097 0.026055 0.153723 -1.326982
2012-02-13 13:08:14 51°12.184 2°37.205 10.7827 0.066564 0.402984 -1.326982
2012-02-13 13:09:14 51°11.979 2°37.095 11.3884 0.028625 0.169623 -1.326982
2012-02-13 13:10:14 51°11.778 2°36.972 11.1299 0.037159 0.221509 -1.326982
2012-02-13 13:11:14 51°11.569 2°36.868 11.3587 0.050011 0.30094 -1.326982
2012-02-13 13:12:14 51°11.367 2°36.751 11.3243 0.040243 0.241299 -1.326982
2012-02-13 13:13:14 51°11.16 2°36.65 11.1495 0.092783 0.573145 -1.326982
2012-02-13 13:14:14 51°10.955 2°36.543 11.2002 0.04014 0.241052 -1.326982
2012-02-13 13:15:14 51°10.746 2°36.464 11.1374 0.029448 0.176117 -1.326982
2012-02-13 13:16:14 51°10.536 2°36.507 11.2458 0.026467 0.158139 -1.326982
2012-02-13 13:17:14 51°10.336 2°36.629 11.4148 0.04086 0.246488 -1.326982
2012-02-13 13:18:14 51°10.14 2°36.76 11.2827 0.026878 0.160785 -1.326982
2012-02-13 13:19:13 51°9.946 2°36.878 11.3047 0.03829 0.230821 -1.326982
2012-02-13 13:20:14 51°9.743 2°36.978 11.3822 0.033663 0.202542 -1.326982
2012-02-13 13:21:14 51°9.546 2°37.075 11.3163 0.021737 0.130057 -1.326982
2012-02-13 13:22:14 51°9.359 2°37.192 11.3486 0.058236 0.356255 -1.326982
2012-02-13 13:23:14 51°9.238 2°37.239 11.3212 0.029448 0.176878 -1.326982
2012-02-13 13:24:14 51°9.167 2°37.185 11.7989 0.033458 0.201737 -1.326982
2012-02-13 13:25:14 51°9.148 2°37.096 11.7612 0.022663 0.136018 -1.326982
2012-02-13 13:26:13 51°9.151 2°37.055 11.7893 0.01783 0.10709 -1.326982
2012-02-13 13:27:14 51°9.141 2°37.054 11.8359 0.020195 0.121334 -1.326982
2012-02-13 13:28:15 51°9.13 2°37.056 11.8629 0.018345 0.110327 -1.326982
2012-02-13 13:29:14 51°9.12 2°37.061 11.8954 0.018345 0.110385 -1.326982
2012-02-13 13:30:13 51°9.111 2°37.065 11.9201 0.017111 0.103041 -1.326982
2012-02-13 13:31:14 51°9.105 2°37.073 11.9561 0.018139 0.109249 -1.326982
2012-02-13 13:32:14 51°9.1 2°37.082 11.9811 0.017316 0.104379 -1.326982
2012-02-13 13:33:14 51°9.096 2°37.093 12.0011 0.016802 0.101335 -1.326982
2012-02-13 13:34:14 51°9.093 2°37.103 12.0244 0.016391 0.098915 -1.326982
2012-02-13 13:35:14 51°9.09 2°37.112 12.0525 0.016288 0.098331 -1.326982
2012-02-13 13:36:14 51°9.087 2°37.121 12.0668 0.016597 0.100219 -1.326982
2012-02-13 13:37:14 51°9.083 2°37.134 12.09 0.016083 0.09718 -1.326982
2012-02-13 13:38:14 51°9.08 2°37.143 12.1118 0.017214 0.103995 -1.326982
2012-02-13 13:39:14 51°9.077 2°37.155 12.1297 0.015774 0.095409 -1.326982
2012-02-13 13:40:14 51°9.075 2°37.168 12.1564 0.015877 0.096055 -1.326982
2012-02-13 13:41:14 51°9.074 2°37.181 12.1645 0.017111 0.103492 -1.326982
2012-02-13 13:42:14 51°9.073 2°37.194 12.1805 0.015569 0.094272 -1.326982
2012-02-13 13:43:14 51°9.071 2°37.209 12.1984 0.016391 0.099242 -1.326982
2012-02-13 13:44:14 51°9.071 2°37.225 12.214 0.016597 0.100513 -1.326982
2012-02-13 13:45:14 51°9.071 2°37.241 12.2279 0.01598 0.096846 -1.326982
2012-02-13 13:46:14 51°9.072 2°37.26 12.239 0.016083 0.097498 -1.326982
2012-02-13 13:47:14 51°9.074 2°37.278 12.2578 0.014746 0.089523 -1.326982
2012-02-13 13:48:14 51°9.079 2°37.295 12.2693 0.015466 0.093867 -1.326982
2012-02-13 13:49:14 51°9.081 2°37.313 12.2867 0.01526 0.092665 -1.326982
2012-02-13 13:50:14 51°9.083 2°37.333 12.2903 0.014438 0.087767 -1.326982
2012-02-13 13:51:13 51°9.083 2°37.354 12.3058 0.015363 0.093342 -1.326982
2012-02-13 13:52:14 51°9.083 2°37.377 12.3162 0.016597 0.100798 -1.326982
2012-02-13 13:53:13 51°9.108 2°37.374 12.3244 0.017728 0.107666 -1.326982
2012-02-13 13:54:14 51°9.106 2°37.263 12.3278 0.016494 0.100234 -1.326982
2012-02-13 13:55:13 51°9.098 2°37.125 12.2355 0.042094 0.258997 -1.326982
2012-02-13 13:56:14 51°9.134 2°37.077 12.3282 0.022149 0.134746 -1.326982
2012-02-13 13:57:14 51°9.144 2°37.092 12.3451 0.023896 0.1456 -1.326982
2012-02-13 13:58:14 51°9.143 2°37.119 12.3594 0.016288 0.09924 -1.326982
2012-02-13 13:59:14 51°9.142 2°37.149 12.368 0.017625 0.107399 -1.326982
2012-02-13 14:00:14 51°9.138 2°37.177 12.3784 0.017111 0.104339 -1.326982
2012-02-13 14:01:14 51°9.135 2°37.21 12.3888 0.017522 0.106892 -1.326982
2012-02-13 14:02:14 51°9.134 2°37.24 12.4051 0.017728 0.108193 -1.326982
2012-02-13 14:03:14 51°9.171 2°37.255 12.4007 0.0167 0.101997 -1.326982
2012-02-13 14:04:14 51°9.195 2°37.226 12.4058 0.018447 0.112681 -1.326982
2012-02-13 14:05:14 51°9.205 2°37.219 12.4227 0.015569 0.095225 -1.326982
2012-02-13 14:06:14 51°9.215 2°37.23 12.4313 0.0167 0.102143 -1.326982
2012-02-13 14:07:14 51°9.223 2°37.253 12.4191 0.014438 0.088471 -1.326982
2012-02-13 14:08:14 51°9.228 2°37.283 12.4376 0.016391 0.100343 -1.326982
2012-02-13 14:09:14 51°9.23 2°37.32 12.4478 0.017111 0.104776 -1.326982
2012-02-13 14:10:14 51°9.236 2°37.359 12.4518 0.01598 0.097933 -1.326982
2012-02-13 14:11:14 51°9.276 2°37.341 12.4547 0.018139 0.111131 -1.326982
2012-02-13 14:12:14 51°9.275 2°37.298 12.3862 0.034794 0.214973 -1.326982
2012-02-13 14:13:14 51°9.27 2°37.287 12.4541 0.027392 0.168512 -1.326982
2012-02-13 14:14:14 51°9.265 2°37.294 12.4767 0.02112 0.129604 -1.326982
2012-02-13 14:15:14 51°9.26 2°37.31 12.4716 0.02585 0.159056 -1.326982
2012-02-13 14:16:14 51°9.255 2°37.328 12.4803 0.02585 0.15921 -1.326982
2012-02-13 14:17:14 51°9.25 2°37.347 12.4858 0.031813 0.196747 -1.326982
2012-02-13 14:18:14 51°9.244 2°37.366 12.4853 0.023691 0.145936 -1.326982
2012-02-13 14:19:14 51°9.237 2°37.385 12.4814 0.023691 0.146062 -1.326982
2012-02-13 14:20:14 51°9.231 2°37.402 12.4893 0.021737 0.133999 -1.326982
2012-02-13 14:21:14 51°9.225 2°37.413 12.5007 0.021943 0.135352 -1.326982
2012-02-13 14:22:14 51°9.219 2°37.423 12.4655 0.027186 0.168225 -1.326982
2012-02-13 14:23:14 51°9.212 2°37.433 12.5091 0.026467 0.163868 -1.326982
2012-02-13 14:24:14 51°9.208 2°37.442 12.5108 0.01927 0.118986 -1.326982
2012-02-13 14:25:14 51°9.204 2°37.451 12.5143 0.021429 0.132457 -1.326982
2012-02-13 14:26:14 51°9.203 2°37.458 12.5161 0.017728 0.109589 -1.326982
2012-02-13 14:27:14 51°9.215 2°37.448 12.4891 0.015569 0.096304 -1.326982
2012-02-13 14:28:14 51°9.28 2°37.5 12.4475 0.027084 0.168264 -1.326982
2012-02-13 14:29:14 51°9.365 2°37.706 12.5104 0.014129 0.087598 -1.326982
2012-02-13 14:30:14 51°9.47 2°38.001 12.3897 0.012382 0.076956 -1.326982
2012-02-13 14:31:14 51°9.559 2°38.343 12.4235 0.015363 0.095224 -1.326982
2012-02-13 14:32:14 51°9.64 2°38.691 12.3942 0.014541 0.090233 -1.326982
2012-02-13 14:33:14 51°9.727 2°39.036 12.3844 0.014746 0.091533 -1.326982
2012-02-13 14:34:14 51°9.813 2°39.382 10.0729 0.021943 0.136407 -1.326982
2012-02-13 14:35:14 51°9.911 2°39.724 10.808 0.013821 0.085982 -1.326982
2012-02-13 14:36:14 51°9.998 2°40.075 10.4003 0.018756 0.11663 -1.326982
2012-02-13 14:37:14 51°10.088 2°40.426 10.9062 0.018756 0.116662 -1.326982
2012-02-13 14:38:14 51°10.182 2°40.775 10.9726 0.024925 0.155568 -1.326982
2012-02-13 14:39:14 51°10.273 2°41.125 10.8963 0.015363 0.095706 -1.326982
2012-02-13 14:40:14 51°10.364 2°41.476 10.881 0.017522 0.109183 -1.326982
2012-02-13 14:41:14 51°10.458 2°41.825 11.011 0.024616 0.15387 -1.326982
2012-02-13 14:42:14 51°10.557 2°42.168 11.3257 0.02585 0.161766 -1.326982
2012-02-13 14:43:14 51°10.642 2°42.522 11.0762 0.016905 0.1056 -1.326982
2012-02-13 14:44:14 51°10.735 2°42.87 11.2227 0.014746 0.092189 -1.326982
2012-02-13 14:45:14 51°10.836 2°43.214 11.1723 0.022663 0.141857 -1.326982
2012-02-13 14:46:13 51°10.919 2°43.561 11.2273 0.038599 0.24448 -1.326982
2012-02-13 14:47:14 51°11.017 2°43.911 11.2831 0.021018 0.131587 -1.326982
2012-02-13 14:48:14 51°11.114 2°44.254 11.2806 0.017933 0.112219 -1.326982
2012-02-13 14:49:14 51°11.205 2°44.603 11.2653 0.022149 0.138843 -1.326982
2012-02-13 14:50:14 51°11.296 2°44.954 11.3089 0.019681 0.123258 -1.326982
2012-02-13 14:51:14 51°11.396 2°45.296 11.3498 0.018447 0.115511 -1.326982
2012-02-13 14:52:14 51°11.502 2°45.634 11.3656 0.019578 0.122639 -1.326982
2012-02-13 14:53:14 51°11.596 2°45.982 11.4204 0.019373 0.121375 -1.326982
2012-02-13 14:54:14 51°11.684 2°46.335 11.2971 0.018139 0.113646 -1.326982
2012-02-13 14:55:14 51°11.784 2°46.678 11.3416 0.014644 0.091809 -1.326982
2012-02-13 14:56:14 51°11.88 2°47.018 11.4437 0.021018 0.131904 -1.326982
2012-02-13 14:57:14 51°11.977 2°47.361 11.4619 0.021223 0.133245 -1.326982
2012-02-13 14:58:14 51°12.063 2°47.71 11.3975 0.027186 0.17131 -1.326982
2012-02-13 14:59:14 51°12.169 2°48.047 11.3642 0.016186 0.101544 -1.326982
2012-02-13 15:00:14 51°12.273 2°48.383 11.4272 0.026467 0.166789 -1.326982
2012-02-13 15:01:14 51°12.376 2°48.725 11.4743 0.03644 0.231491 -1.326982
2012-02-13 15:02:14 51°12.476 2°49.068 11.5172 0.015363 0.096503 -1.326982
2012-02-13 15:03:14 51°12.583 2°49.408 11.4973 0.022457 0.141338 -1.326982
2012-02-13 15:04:14 51°12.69 2°49.748 11.4538 0.012999 0.081815 -1.326982
2012-02-13 15:05:00 51°8.105 2°58.95 8.8696 0.427674 2.467308 -1.326982
2012-02-13 15:05:23 51°12.824 2°50.128 11.4453 0.017419 0.109486 -1.326982
2012-02-13 15:06:24 51°12.934 2°50.47 11.5104 0.019064 0.119923 -1.326982
2012-02-13 15:07:23 51°13.043 2°50.802 11.4565 0.050834 0.326677 -1.326982
2012-02-13 15:08:23 51°13.155 2°51.143 11.4943 0.017008 0.107037 -1.326982
2012-02-13 15:09:23 51°13.271 2°51.478 11.4367 0.017831 0.112244 -1.326982
2012-02-13 15:10:23 51°13.422 2°51.775 11.5303 0.014232 0.089629 -1.326982
2012-02-13 15:11:23 51°13.571 2°52.078 11.4723 0.014232 0.089658 -1.326982
2012-02-13 15:12:23 51°13.715 2°52.388 11.5243 0.047235 0.303279 -1.326982
2012-02-13 15:13:23 51°13.853 2°52.703 11.4585 0.014129 0.089054 -1.326982
2012-02-13 15:14:23 51°13.996 2°53.014 11.5369 0.018653 0.117583 -1.326982
2012-02-13 15:15:23 51°14.137 2°53.327 11.5246 0.014952 0.094281 -1.326982
2012-02-13 15:16:23 51°14.27 2°53.647 11.5133 0.015055 0.094942 -1.326982
2012-02-13 15:17:23 51°14.416 2°53.953 11.5543 0.013924 0.087854 -1.326982
2012-02-13 15:18:23 51°14.547 2°54.277 11.5222 0.125895 0.842415 -1.326982
2012-02-13 15:19:23 51°14.649 2°54.628 11.6122 0.042608 0.27337 -1.326982
2012-02-13 15:20:23 51°14.584 2°54.96 11.5574 0.034178 0.218127 -1.326982
2012-02-13 15:21:25 51°14.415 2°55.168 11.5767 0.014952 0.094406 -1.326982
2012-02-13 15:22:27 51°14.253 2°55.309 11.5005 0.036542 0.233609 -1.326982
2012-02-13 15:23:27 51°14.122 2°55.413 11.5356 0.049908 0.322069 -1.326982
2012-02-13 15:24:27 51°14.013 2°55.496 11.5528 0.045179 0.290591 -1.326982
2012-02-13 15:25:27 51°13.931 2°55.554 11.5676 0.03757 0.240352 -1.326982
2012-02-13 15:26:27 51°13.845 2°55.616 11.5899 0.041477 0.266081 -1.326982
2012-02-13 15:27:27 51°13.764 2°55.698 11.6028 0.03757 0.240352 -1.326982
2012-02-13 15:28:27 51°13.701 2°55.814 11.6087 0.037879 0.242374 -1.326982
2012-02-13 15:29:27 51°13.66 2°55.917 11.6181 0.04158 0.266772 -1.326982
2012-02-13 15:30:27 51°13.642 2°55.997 11.6249 0.048263 0.31109 -1.326982